Time;durP1;ratioP1;P1;durP2;ratioP2;P2;SDS_P1;SDS_P2;PMS_P1;PMS_P2;Temp;Humidity;BMP_temperature;BMP_pressure;BME280_temperature;BME280_humidity;BME280_pressure;Samples;Min_cycle;Max_cycle;Signal;HPM_P1;HPM_P2
2021/03/04 00:00:11;;;;;;;24.50;15.32;;;;;;;;;;5088222;28;20081;-52
2021/03/04 00:02:37;;;;;;;24.75;10.57;;;;;;;;;;5088086;28;20034;-47
2021/03/04 00:05:03;;;;;;;13.38;9.90;;;;;;;;;;5088398;28;20040;-53
2021/03/04 00:07:28;;;;;;;19.98;11.38;;;;;;;;;;5088267;28;20494;-50
2021/03/04 00:09:54;;;;;;;12.35;11.15;;;;;;;;;;5088284;28;20035;-48
2021/03/04 00:12:19;;;;;;;12.23;9.98;;;;;;;;;;5088268;28;20035;-49
2021/03/04 00:14:44;;;;;;;18.98;12.10;;;;;;;;;;5088212;28;20039;-49
2021/03/04 00:17:10;;;;;;;14.23;10.93;;;;;;;;;;5088432;28;20566;-50
2021/03/04 00:19:35;;;;;;;14.25;9.00;;;;;;;;;;5088089;28;20055;-45
2021/03/04 00:22:00;;;;;;;15.18;10.55;;;;;;;;;;5087619;28;20016;-52
2021/03/04 00:24:26;;;;;;;27.67;10.18;;;;;;;;;;5087530;28;20079;-47
2021/03/04 00:26:51;;;;;;;16.88;10.90;;;;;;;;;;5086557;28;20032;-52
2021/03/04 00:29:16;;;;;;;13.32;9.93;;;;;;;;;;5087462;28;20123;-46
2021/03/04 00:31:41;;;;;;;11.35;8.13;;;;;;;;;;5087574;28;20426;-46
2021/03/04 00:34:07;;;;;;;20.08;8.70;;;;;;;;;;5086758;28;20111;-46
2021/03/04 00:36:32;;;;;;;27.77;11.57;;;;;;;;;;5087271;28;20118;-50
2021/03/04 00:38:58;;;;;;;21.73;8.20;;;;;;;;;;5086528;28;20521;-47
2021/03/04 00:41:23;;;;;;;20.45;9.23;;;;;;;;;;5087441;28;20046;-47
2021/03/04 00:43:49;;;;;;;11.43;9.30;;;;;;;;;;5087380;28;20460;-50
2021/03/04 00:46:14;;;;;;;20.75;8.05;;;;;;;;;;5087216;28;20100;-44
2021/03/04 00:48:39;;;;;;;14.38;8.45;;;;;;;;;;5087709;28;20453;-49
2021/03/04 00:51:05;;;;;;;18.02;8.38;;;;;;;;;;5087674;28;20015;-52
2021/03/04 00:53:30;;;;;;;12.60;8.65;;;;;;;;;;5087280;28;20139;-55
2021/03/04 00:55:55;;;;;;;20.80;8.85;;;;;;;;;;5087253;28;20457;-47
2021/03/04 00:58:20;;;;;;;16.55;8.32;;;;;;;;;;5087180;28;20076;-52
2021/03/04 01:00:46;;;;;;;12.32;8.18;;;;;;;;;;5086848;28;20444;-48
2021/03/04 01:03:11;;;;;;;17.95;9.73;;;;;;;;;;5087005;28;20758;-50
2021/03/04 01:05:36;;;;;;;17.13;9.85;;;;;;;;;;5087341;28;20080;-46
2021/03/04 01:08:02;;;;;;;13.02;8.98;;;;;;;;;;5086688;28;20373;-51
2021/03/04 01:10:30;;;;;;;11.25;8.60;;;;;;;;;;5087379;28;20059;-47
2021/03/04 01:12:56;;;;;;;19.75;11.48;;;;;;;;;;5087256;28;20031;-48
2021/03/04 01:15:21;;;;;;;14.63;9.82;;;;;;;;;;5087312;28;20424;-46
2021/03/04 01:17:47;;;;;;;16.63;8.23;;;;;;;;;;5087122;28;20057;-49
2021/03/04 01:20:13;;;;;;;12.90;7.70;;;;;;;;;;5087311;28;20052;-45
2021/03/04 01:22:39;;;;;;;10.70;7.97;;;;;;;;;;5086862;28;20031;-54
2021/03/04 01:25:05;;;;;;;11.90;8.00;;;;;;;;;;5087130;28;20036;-48
2021/03/04 01:27:30;;;;;;;10.10;9.10;;;;;;;;;;5087357;28;20030;-47
2021/03/04 01:29:56;;;;;;;21.85;9.60;;;;;;;;;;5086942;28;20732;-47
2021/03/04 01:32:21;;;;;;;12.05;9.05;;;;;;;;;;5086748;28;20412;-46
2021/03/04 01:34:47;;;;;;;22.92;12.07;;;;;;;;;;5086724;28;20058;-50
2021/03/04 01:37:12;;;;;;;12.45;11.05;;;;;;;;;;5086895;28;20055;-51
2021/03/04 01:39:37;;;;;;;33.05;11.55;;;;;;;;;;5086958;28;20036;-55
2021/03/04 01:42:03;;;;;;;13.70;9.15;;;;;;;;;;5086946;28;20016;-51
2021/03/04 01:44:28;;;;;;;10.40;9.25;;;;;;;;;;5085412;28;20145;-50
2021/03/04 01:46:53;;;;;;;16.33;12.55;;;;;;;;;;5083508;28;20020;-44
2021/03/04 01:49:19;;;;;;;16.67;11.82;;;;;;;;;;5089438;28;20111;-47
2021/03/04 01:51:44;;;;;;;19.98;15.23;;;;;;;;;;5090836;28;20020;-52
2021/03/04 01:54:09;;;;;;;18.52;11.90;;;;;;;;;;5090672;28;20421;-46
2021/03/04 01:56:35;;;;;;;11.57;9.13;;;;;;;;;;5091094;28;20555;-46
2021/03/04 01:59:01;;;;;;;9.45;8.45;;;;;;;;;;5089796;28;20052;-54
2021/03/04 02:01:26;;;;;;;14.70;8.98;;;;;;;;;;5090887;28;20020;-46
2021/03/04 02:03:52;;;;;;;14.05;9.65;;;;;;;;;;5092030;28;20050;-48
2021/03/04 02:06:19;;;;;;;26.67;11.10;;;;;;;;;;5090939;28;20038;-48
2021/03/04 02:08:47;;;;;;;18.08;11.45;;;;;;;;;;5090383;28;20109;-46
2021/03/04 02:11:16;;;;;;;20.65;12.02;;;;;;;;;;5090210;28;20135;-47
2021/03/04 02:13:42;;;;;;;17.08;11.20;;;;;;;;;;5090774;28;20071;-48
2021/03/04 02:16:07;;;;;;;15.25;10.82;;;;;;;;;;5090285;28;20134;-50
2021/03/04 02:18:39;;;;;;;27.70;11.45;;;;;;;;;;5090548;28;20135;-49
2021/03/04 02:21:23;;;;;;;15.55;8.80;;;;;;;;;;5090135;28;20024;-48
2021/03/04 02:23:51;;;;;;;31.40;12.40;;;;;;;;;;5090123;28;20512;-45
2021/03/04 02:26:29;;;;;;;12.77;10.50;;;;;;;;;;5088772;28;20020;-44
2021/03/04 02:28:57;;;;;;;14.88;10.25;;;;;;;;;;5092944;28;20097;-44
2021/03/04 02:31:23;;;;;;;17.55;11.68;;;;;;;;;;5091526;28;20035;-44
2021/03/04 02:33:48;;;;;;;11.20;7.63;;;;;;;;;;5093276;28;20028;-45
2021/03/04 02:36:14;;;;;;;14.30;10.40;;;;;;;;;;5092920;28;20115;-44
2021/03/04 02:38:40;;;;;;;18.05;11.23;;;;;;;;;;5093147;28;20055;-48
2021/03/04 02:41:06;;;;;;;14.13;10.43;;;;;;;;;;5093162;28;20469;-44
2021/03/04 02:43:31;;;;;;;14.38;10.13;;;;;;;;;;5092004;28;20027;-46
2021/03/04 02:45:58;;;;;;;18.85;8.07;;;;;;;;;;5092346;28;20024;-43
2021/03/04 02:48:24;;;;;;;15.23;10.23;;;;;;;;;;5092684;28;20389;-47
2021/03/04 02:50:50;;;;;;;19.40;10.65;;;;;;;;;;5093117;28;20024;-45
2021/03/04 02:53:16;;;;;;;12.82;8.65;;;;;;;;;;5090191;28;20023;-45
2021/03/04 02:55:43;;;;;;;18.35;10.32;;;;;;;;;;5092678;28;20024;-43
2021/03/04 02:58:09;;;;;;;20.45;10.13;;;;;;;;;;5092517;28;20062;-47
2021/03/04 03:00:34;;;;;;;14.75;10.57;;;;;;;;;;5091771;28;20669;-48
2021/03/04 03:03:00;;;;;;;13.57;9.02;;;;;;;;;;5092657;28;20020;-47
2021/03/04 03:05:28;;;;;;;19.63;8.95;;;;;;;;;;5092634;28;20024;-45
2021/03/04 03:07:53;;;;;;;15.52;10.02;;;;;;;;;;5092332;28;20039;-51
2021/03/04 03:10:19;;;;;;;13.60;10.48;;;;;;;;;;5092823;28;20040;-44
2021/03/04 03:12:48;;;;;;;17.55;9.90;;;;;;;;;;5092688;28;20073;-43
2021/03/04 03:15:15;;;;;;;19.48;10.77;;;;;;;;;;5092371;28;20035;-44
2021/03/04 03:17:40;;;;;;;17.27;11.93;;;;;;;;;;5092307;28;20084;-50
2021/03/04 03:20:07;;;;;;;20.17;10.63;;;;;;;;;;5091772;28;20067;-45
2021/03/04 03:22:32;;;;;;;34.33;11.13;;;;;;;;;;5091895;28;20085;-47
2021/03/04 03:24:57;;;;;;;16.27;12.02;;;;;;;;;;5092336;28;20039;-44
2021/03/04 03:27:23;;;;;;;30.52;12.10;;;;;;;;;;5092225;28;20024;-43
2021/03/04 03:29:48;;;;;;;16.05;11.82;;;;;;;;;;5090585;28;20397;-44
2021/03/04 03:32:13;;;;;;;27.08;14.25;;;;;;;;;;5092086;28;20028;-46
2021/03/04 03:34:39;;;;;;;11.85;10.60;;;;;;;;;;5091820;28;20024;-44
2021/03/04 03:37:06;;;;;;;16.25;12.02;;;;;;;;;;5090698;28;20020;-46
2021/03/04 03:39:31;;;;;;;18.13;11.55;;;;;;;;;;5091935;28;20032;-44
2021/03/04 03:41:57;;;;;;;15.10;10.75;;;;;;;;;;5092002;28;20024;-44
2021/03/04 03:44:22;;;;;;;25.42;11.90;;;;;;;;;;5091441;28;20028;-45
2021/03/04 03:46:49;;;;;;;19.17;9.43;;;;;;;;;;5091515;28;20456;-45
2021/03/04 03:49:15;;;;;;;16.27;10.82;;;;;;;;;;5090871;28;20028;-43
2021/03/04 03:51:43;;;;;;;13.77;12.35;;;;;;;;;;5091711;28;20797;-44
2021/03/04 03:54:09;;;;;;;31.67;12.18;;;;;;;;;;5090810;28;20036;-44
2021/03/04 03:56:34;;;;;;;24.15;14.45;;;;;;;;;;5089265;28;20043;-48
2021/03/04 03:59:00;;;;;;;12.32;10.38;;;;;;;;;;5091219;28;20032;-50
2021/03/04 04:01:29;;;;;;;13.75;10.57;;;;;;;;;;5091281;28;20526;-48
2021/03/04 04:03:57;;;;;;;30.70;12.82;;;;;;;;;;5091142;28;20047;-48
2021/03/04 04:06:30;;;;;;;17.75;10.98;;;;;;;;;;5089552;28;20437;-48
2021/03/04 04:08:56;;;;;;;13.35;11.25;;;;;;;;;;5089443;28;20107;-48
2021/03/04 04:11:22;;;;;;;23.05;11.10;;;;;;;;;;5090245;28;20178;-48
2021/03/04 04:13:47;;;;;;;17.90;9.20;;;;;;;;;;5090123;28;20044;-45
2021/03/04 04:16:13;;;;;;;21.63;11.18;;;;;;;;;;5090301;28;20021;-48
2021/03/04 04:18:39;;;;;;;17.20;11.57;;;;;;;;;;5090565;28;20143;-44
2021/03/04 04:21:04;;;;;;;11.98;10.63;;;;;;;;;;5090522;28;20376;-48
2021/03/04 04:23:29;;;;;;;16.30;11.10;;;;;;;;;;5086997;28;20365;-49
2021/03/04 04:25:55;;;;;;;17.15;11.73;;;;;;;;;;5090638;28;20122;-44
2021/03/04 04:28:21;;;;;;;13.20;11.45;;;;;;;;;;5090265;28;20028;-49
2021/03/04 04:30:46;;;;;;;15.27;10.93;;;;;;;;;;5090435;28;20016;-44
2021/03/04 04:33:12;;;;;;;14.55;10.73;;;;;;;;;;5090465;28;20039;-44
2021/03/04 04:35:37;;;;;;;15.75;14.15;;;;;;;;;;5090754;28;20431;-51
2021/03/04 04:38:03;;;;;;;20.30;9.88;;;;;;;;;;5089959;28;20350;-44
2021/03/04 04:40:28;;;;;;;14.45;11.02;;;;;;;;;;5091123;28;20675;-45
2021/03/04 04:42:53;;;;;;;17.67;11.80;;;;;;;;;;5090341;28;20031;-51
2021/03/04 04:45:19;;;;;;;20.08;13.20;;;;;;;;;;5089587;28;20383;-48
2021/03/04 04:47:44;;;;;;;18.75;10.88;;;;;;;;;;5087339;28;20058;-45
2021/03/04 04:50:10;;;;;;;16.70;10.85;;;;;;;;;;5087254;28;20458;-47
2021/03/04 04:52:35;;;;;;;17.83;11.20;;;;;;;;;;5084605;28;20078;-45
2021/03/04 04:55:00;;;;;;;15.75;11.80;;;;;;;;;;5084861;28;20032;-48
2021/03/04 04:57:26;;;;;;;12.95;9.05;;;;;;;;;;5090177;28;20024;-48
2021/03/04 04:59:51;;;;;;;13.85;10.52;;;;;;;;;;5089865;28;20114;-51
2021/03/04 05:02:16;;;;;;;26.80;11.40;;;;;;;;;;5089504;28;20028;-51
2021/03/04 05:04:42;;;;;;;18.05;10.77;;;;;;;;;;5090031;28;20127;-47
2021/03/04 05:07:07;;;;;;;14.38;10.38;;;;;;;;;;5089930;28;20457;-46
2021/03/04 05:09:32;;;;;;;11.52;9.75;;;;;;;;;;5089790;28;20074;-49
2021/03/04 05:11:58;;;;;;;13.98;11.25;;;;;;;;;;5089810;28;20457;-47
2021/03/04 05:14:23;;;;;;;19.40;10.27;;;;;;;;;;5089755;28;20063;-48
2021/03/04 05:16:48;;;;;;;15.75;12.13;;;;;;;;;;5089686;28;20028;-45
2021/03/04 05:19:13;;;;;;;17.85;12.13;;;;;;;;;;5089497;28;20075;-49
2021/03/04 05:21:39;;;;;;;22.95;11.25;;;;;;;;;;5089702;28;20016;-44
2021/03/04 05:24:04;;;;;;;18.05;12.75;;;;;;;;;;5088696;28;20036;-46
2021/03/04 05:26:30;;;;;;;27.45;11.73;;;;;;;;;;5089464;28;20035;-52
2021/03/04 05:28:55;;;;;;;18.35;11.57;;;;;;;;;;5085910;28;20521;-48
2021/03/04 05:31:21;;;;;;;16.15;10.98;;;;;;;;;;5089669;28;20024;-46
2021/03/04 05:33:46;;;;;;;23.00;13.27;;;;;;;;;;5089151;28;20059;-46
2021/03/04 05:36:12;;;;;;;18.42;11.15;;;;;;;;;;5089077;28;20528;-43
2021/03/04 05:38:37;;;;;;;12.02;10.73;;;;;;;;;;5089054;28;20039;-45
2021/03/04 05:41:02;;;;;;;16.77;11.93;;;;;;;;;;5088558;28;20016;-46
2021/03/04 05:43:28;;;;;;;20.73;12.35;;;;;;;;;;5089134;28;20484;-44
2021/03/04 05:45:53;;;;;;;14.52;11.52;;;;;;;;;;5088308;28;20718;-53
2021/03/04 05:48:20;;;;;;;18.15;12.52;;;;;;;;;;5087792;28;20451;-45
2021/03/04 05:50:52;;;;;;;20.38;13.48;;;;;;;;;;5089081;28;20020;-50
2021/03/04 05:53:21;;;;;;;20.40;13.85;;;;;;;;;;5088782;28;20036;-45
2021/03/04 05:55:46;;;;;;;18.75;14.35;;;;;;;;;;5089292;28;20051;-47
2021/03/04 05:58:12;;;;;;;17.50;12.88;;;;;;;;;;5087279;28;20418;-47
2021/03/04 06:00:38;;;;;;;16.10;12.70;;;;;;;;;;5089240;28;20036;-48
2021/03/04 06:03:05;;;;;;;16.75;11.43;;;;;;;;;;5089948;28;20020;-48
2021/03/04 06:05:30;;;;;;;16.38;11.90;;;;;;;;;;5089263;28;20055;-51
2021/03/04 06:07:56;;;;;;;32.80;16.25;;;;;;;;;;5089121;28;20052;-46
2021/03/04 06:10:21;;;;;;;30.70;13.27;;;;;;;;;;5089551;28;20039;-45
2021/03/04 06:12:46;;;;;;;17.40;13.65;;;;;;;;;;5088918;28;20020;-46
2021/03/04 06:15:12;;;;;;;22.30;12.63;;;;;;;;;;5088901;28;20032;-49
2021/03/04 06:17:38;;;;;;;12.77;10.77;;;;;;;;;;5088990;28;20045;-47
2021/03/04 06:20:04;;;;;;;21.85;13.75;;;;;;;;;;5088952;28;20473;-49
2021/03/04 06:22:30;;;;;;;27.58;14.88;;;;;;;;;;5089004;28;20020;-46
2021/03/04 06:24:57;;;;;;;13.60;12.23;;;;;;;;;;5088524;28;20487;-48
2021/03/04 06:27:26;;;;;;;37.90;12.73;;;;;;;;;;5089044;28;20056;-50
2021/03/04 06:29:52;;;;;;;19.67;13.68;;;;;;;;;;5089176;28;20097;-52
2021/03/04 06:32:22;;;;;;;17.40;14.57;;;;;;;;;;5088588;28;20020;-45
2021/03/04 06:34:47;;;;;;;15.75;11.65;;;;;;;;;;5088524;28;20063;-46
2021/03/04 06:37:13;;;;;;;15.13;12.93;;;;;;;;;;5092318;28;20106;-47
2021/03/04 06:39:45;;;;;;;16.00;13.48;;;;;;;;;;5092109;28;20354;-49
2021/03/04 06:42:11;;;;;;;18.80;14.70;;;;;;;;;;5092345;28;20024;-44
2021/03/04 06:44:39;;;;;;;25.38;18.02;;;;;;;;;;5091666;28;20032;-44
2021/03/04 06:47:05;;;;;;;28.60;16.75;;;;;;;;;;5092307;28;20047;-45
2021/03/04 06:49:37;;;;;;;20.27;13.80;;;;;;;;;;5092222;28;20028;-50
2021/03/04 06:52:03;;;;;;;16.67;14.70;;;;;;;;;;5092042;28;20024;-45
2021/03/04 06:54:28;;;;;;;14.45;12.93;;;;;;;;;;5092362;28;20172;-48
2021/03/04 06:56:53;;;;;;;22.92;13.65;;;;;;;;;;5092083;28;20020;-53
2021/03/04 06:59:19;;;;;;;17.15;12.50;;;;;;;;;;5089512;28;20115;-53
2021/03/04 07:01:44;;;;;;;23.88;14.15;;;;;;;;;;5089210;28;20050;-49
2021/03/04 07:04:15;;;;;;;17.23;14.32;;;;;;;;;;5092030;28;20485;-45
2021/03/04 07:06:41;;;;;;;;;;;;;;;;;;5092748;28;20149;-45
2021/03/04 07:09:07;;;;;;;29.73;15.65;;;;;;;;;;5091935;28;20304;-44
2021/03/04 07:11:35;;;;;;;19.17;14.95;;;;;;;;;;5091979;28;20346;-45
2021/03/04 07:14:01;;;;;;;15.80;14.23;;;;;;;;;;5091435;28;20372;-53
2021/03/04 07:16:32;;;;;;;28.85;21.95;;;;;;;;;;5092141;28;20026;-43
2021/03/04 07:18:58;;;;;;;42.40;30.02;;;;;;;;;;5091537;28;20486;-49
2021/03/04 07:21:24;;;;;;;34.20;28.17;;;;;;;;;;5092043;28;20443;-46
2021/03/04 07:23:50;;;;;;;34.13;30.20;;;;;;;;;;5089238;28;20032;-51
2021/03/04 07:26:16;;;;;;;26.08;21.20;;;;;;;;;;5090846;28;20024;-51
2021/03/04 07:28:43;;;;;;;50.20;25.10;;;;;;;;;;5091305;28;20034;-47
2021/03/04 07:31:09;;;;;;;25.77;23.02;;;;;;;;;;5089444;28;20016;-45
2021/03/04 07:33:36;;;;;;;20.05;16.80;;;;;;;;;;5091946;28;20135;-50
2021/03/04 07:36:06;;;;;;;27.45;17.17;;;;;;;;;;5091907;28;20030;-49
2021/03/04 07:38:32;;;;;;;26.80;19.03;;;;;;;;;;5091927;28;20079;-50
2021/03/04 07:41:00;;;;;;;16.92;14.07;;;;;;;;;;5091650;28;20028;-47
2021/03/04 07:43:25;;;;;;;26.30;18.33;;;;;;;;;;5091864;28;20028;-44
2021/03/04 07:45:51;;;;;;;24.63;14.25;;;;;;;;;;5090150;28;20039;-53
2021/03/04 07:48:17;;;;;;;17.38;15.63;;;;;;;;;;5090577;28;20038;-48
2021/03/04 07:50:53;;;;;;;22.10;13.55;;;;;;;;;;5091495;28;20024;-50
2021/03/04 07:53:19;;;;;;;14.68;13.15;;;;;;;;;;5090786;28;20028;-51
2021/03/04 07:55:44;;;;;;;18.23;12.85;;;;;;;;;;5091769;28;20024;-46
2021/03/04 07:58:13;;;;;;;21.30;15.40;;;;;;;;;;5090609;28;20453;-50
2021/03/04 08:00:39;;;;;;;21.65;12.57;;;;;;;;;;5090546;28;20069;-46
2021/03/04 08:03:04;;;;;;;17.08;11.55;;;;;;;;;;5091388;28;20103;-45
2021/03/04 08:05:33;;;;;;;25.98;14.77;;;;;;;;;;5091097;28;20442;-49
2021/03/04 08:08:09;;;;;;;26.10;17.30;;;;;;;;;;5091217;28;20024;-45
2021/03/04 08:10:42;;;;;;;27.48;17.75;;;;;;;;;;5091149;28;20024;-49
2021/03/04 08:13:07;;;;;;;25.58;18.92;;;;;;;;;;5090617;28;20059;-47
2021/03/04 08:15:46;;;;;;;38.78;18.88;;;;;;;;;;5090377;28;20125;-51
2021/03/04 08:18:21;;;;;;;30.13;17.42;;;;;;;;;;5079413;28;20024;-51
2021/03/04 08:20:47;;;;;;;24.45;16.67;;;;;;;;;;5087318;28;20032;-54
2021/03/04 08:23:14;;;;;;;20.45;14.38;;;;;;;;;;5082127;28;20092;-49
2021/03/04 08:25:41;;;;;;;22.50;13.73;;;;;;;;;;5087673;28;20067;-47
2021/03/04 08:28:06;;;;;;;22.13;12.45;;;;;;;;;;5087490;28;20024;-49
2021/03/04 08:30:37;;;;;;;13.57;12.18;;;;;;;;;;5087917;28;20073;-50
2021/03/04 08:33:07;;;;;;;15.32;13.82;;;;;;;;;;5087907;28;20107;-50
2021/03/04 08:35:37;;;;;;;30.77;21.08;;;;;;;;;;5087704;28;20074;-50
2021/03/04 08:38:03;;;;;;;29.70;24.60;;;;;;;;;;5087511;28;20567;-51
2021/03/04 08:40:37;;;;;;;23.90;20.55;;;;;;;;;;5084610;28;20069;-51
2021/03/04 08:43:07;;;;;;;21.88;19.48;;;;;;;;;;5086991;28;20027;-54
2021/03/04 08:45:33;;;;;;;31.33;20.57;;;;;;;;;;5086326;28;20020;-51
2021/03/04 08:47:58;;;;;;;24.17;21.80;;;;;;;;;;5085262;28;20077;-50
2021/03/04 08:50:43;;;;;;;28.33;23.65;;;;;;;;;;5085390;28;20781;-51
2021/03/04 08:53:09;;;;;;;26.88;20.08;;;;;;;;;;5086013;28;20020;-52
2021/03/04 08:55:35;;;;;;;24.48;20.45;;;;;;;;;;5086418;28;20113;-51
2021/03/04 08:58:04;;;;;;;28.05;20.98;;;;;;;;;;5084850;28;20024;-52
2021/03/04 09:00:30;;;;;;;25.60;23.00;;;;;;;;;;5081493;28;20728;-50
2021/03/04 09:03:05;;;;;;;29.20;22.27;;;;;;;;;;5086448;28;20027;-54
2021/03/04 09:05:30;;;;;;;22.00;19.65;;;;;;;;;;5085517;28;20059;-54
2021/03/04 09:07:55;;;;;;;31.58;21.38;;;;;;;;;;5078181;28;20024;-54
2021/03/04 09:10:20;;;;;;;28.48;20.67;;;;;;;;;;5080019;28;20374;-51
2021/03/04 09:12:49;;;;;;;19.70;17.80;;;;;;;;;;5082809;28;20077;-54
2021/03/04 09:15:21;;;;;;;30.42;19.98;;;;;;;;;;5083539;28;20042;-52
2021/03/04 09:17:47;;;;;;;43.03;22.38;;;;;;;;;;5083361;28;20047;-54
2021/03/04 09:20:13;;;;;;;32.42;27.10;;;;;;;;;;5083290;28;20147;-51
2021/03/04 09:22:39;;;;;;;27.63;19.65;;;;;;;;;;5081284;28;20032;-49
2021/03/04 09:25:05;;;;;;;28.25;18.77;;;;;;;;;;5085603;28;20078;-52
2021/03/04 09:27:30;;;;;;;25.15;17.63;;;;;;;;;;5089119;28;20397;-49
2021/03/04 09:29:56;;;;;;;24.92;19.70;;;;;;;;;;5088372;28;20036;-50
2021/03/04 09:32:31;;;;;;;21.45;19.15;;;;;;;;;;5089898;28;20020;-47
2021/03/04 09:34:57;;;;;;;22.33;17.70;;;;;;;;;;5089164;28;20055;-49
2021/03/04 09:37:23;;;;;;;19.55;17.30;;;;;;;;;;5089752;28;20040;-50
2021/03/04 09:39:49;;;;;;;17.58;15.90;;;;;;;;;;5087213;28;20433;-49
2021/03/04 09:42:16;;;;;;;19.58;15.68;;;;;;;;;;5089254;28;20016;-49
2021/03/04 09:45:08;;;;;;;30.95;14.77;;;;;;;;;;5088711;28;20028;-48
2021/03/04 09:47:33;;;;;;;17.25;11.35;;;;;;;;;;5082192;28;20047;-49
2021/03/04 09:50:00;;;;;;;19.42;10.88;;;;;;;;;;5089285;28;20036;-51
2021/03/04 09:52:25;;;;;;;9.75;8.50;;;;;;;;;;5085899;28;20040;-47
2021/03/04 09:54:50;;;;;;;13.32;9.43;;;;;;;;;;5087088;28;20582;-48
2021/03/04 09:57:18;;;;;;;13.32;8.75;;;;;;;;;;5086766;28;20080;-49
2021/03/04 09:59:44;;;;;;;26.90;9.45;;;;;;;;;;5088005;28;20582;-49
2021/03/04 10:02:09;;;;;;;18.15;11.43;;;;;;;;;;5087323;28;20044;-46
2021/03/04 10:04:34;;;;;;;11.25;7.32;;;;;;;;;;5085971;28;20082;-47
2021/03/04 10:07:00;;;;;;;14.40;9.23;;;;;;;;;;5088954;28;20150;-54
2021/03/04 10:09:25;;;;;;;13.20;8.02;;;;;;;;;;5089843;28;20357;-47
2021/03/04 10:11:51;;;;;;;18.30;8.80;;;;;;;;;;5093874;28;20060;-48
2021/03/04 10:14:16;;;;;;;19.27;7.13;;;;;;;;;;5093540;28;20115;-50
2021/03/04 10:16:42;;;;;;;15.80;9.45;;;;;;;;;;5093301;28;20032;-45
2021/03/04 10:19:08;;;;;;;7.13;6.43;;;;;;;;;;5092761;28;20116;-47
2021/03/04 10:21:33;;;;;;;12.27;6.80;;;;;;;;;;5092063;28;20483;-49
2021/03/04 10:23:59;;;;;;;17.90;8.38;;;;;;;;;;5093042;28;20135;-48
2021/03/04 10:26:24;;;;;;;15.40;7.43;;;;;;;;;;5093337;28;20481;-51
2021/03/04 10:28:49;;;;;;;6.50;5.75;;;;;;;;;;5093075;28;20036;-47
2021/03/04 10:31:15;;;;;;;12.90;8.13;;;;;;;;;;5093212;28;20137;-49
2021/03/04 10:33:41;;;;;;;17.90;11.02;;;;;;;;;;5093103;28;20073;-48
2021/03/04 10:36:06;;;;;;;14.85;10.82;;;;;;;;;;5092781;28;20028;-48
2021/03/04 10:38:31;;;;;;;16.55;11.48;;;;;;;;;;5093317;28;20028;-51
2021/03/04 10:40:57;;;;;;;20.38;11.43;;;;;;;;;;5092743;28;20081;-49
2021/03/04 10:43:22;;;;;;;14.23;10.30;;;;;;;;;;5092607;28;20024;-49
2021/03/04 10:45:47;;;;;;;36.40;11.45;;;;;;;;;;5092665;28;20024;-46
2021/03/04 10:48:13;;;;;;;11.90;8.60;;;;;;;;;;5091939;28;20046;-48
2021/03/04 10:50:38;;;;;;;7.70;7.00;;;;;;;;;;5090428;28;20020;-54
2021/03/04 10:53:03;;;;;;;16.45;8.65;;;;;;;;;;5092478;28;20525;-53
2021/03/04 10:55:30;;;;;;;21.58;12.90;;;;;;;;;;5092714;28;20110;-47
2021/03/04 10:57:55;;;;;;;8.57;5.03;;;;;;;;;;5092626;28;20146;-44
2021/03/04 11:00:21;;;;;;;9.38;8.43;;;;;;;;;;5092634;28;20946;-53
2021/03/04 11:02:46;;;;;;;12.95;10.25;;;;;;;;;;5092254;28;20473;-52
2021/03/04 11:05:11;;;;;;;16.40;9.85;;;;;;;;;;5092296;28;20651;-49
2021/03/04 11:07:37;;;;;;;11.15;9.88;;;;;;;;;;5092173;28;20036;-47
2021/03/04 11:10:03;;;;;;;18.60;9.15;;;;;;;;;;5092142;28;20448;-53
2021/03/04 11:12:30;;;;;;;13.98;9.13;;;;;;;;;;5092251;28;20055;-49
2021/03/04 11:14:55;;;;;;;19.73;8.85;;;;;;;;;;5092183;28;20047;-47
2021/03/04 11:17:21;;;;;;;20.73;8.77;;;;;;;;;;5092017;28;20024;-50
2021/03/04 11:19:46;;;;;;;13.43;9.40;;;;;;;;;;5091766;28;20439;-50
2021/03/04 11:22:11;;;;;;;15.38;9.93;;;;;;;;;;5091268;28;20026;-50
2021/03/04 11:24:37;;;;;;;15.25;9.02;;;;;;;;;;5091908;28;20051;-51
2021/03/04 11:27:03;;;;;;;11.98;7.70;;;;;;;;;;5091659;28;20031;-53
2021/03/04 11:29:28;;;;;;;15.00;9.80;;;;;;;;;;5091676;28;20422;-45
2021/03/04 11:31:53;;;;;;;14.20;12.07;;;;;;;;;;5090238;28;20075;-51
2021/03/04 11:34:18;;;;;;;9.15;7.70;;;;;;;;;;5090770;28;20078;-51
2021/03/04 11:36:44;;;;;;;12.52;5.90;;;;;;;;;;5091719;28;20453;-46
2021/03/04 11:39:09;;;;;;;8.57;5.93;;;;;;;;;;5091309;28;20858;-45
2021/03/04 11:41:34;;;;;;;14.88;6.70;;;;;;;;;;5091747;28;20032;-47
2021/03/04 11:44:00;;;;;;;16.13;10.25;;;;;;;;;;5091040;28;20036;-56
2021/03/04 11:46:25;;;;;;;21.55;11.60;;;;;;;;;;5091750;28;20027;-50
2021/03/04 11:48:51;;;;;;;17.85;10.55;;;;;;;;;;5090972;28;20412;-51
2021/03/04 11:51:16;;;;;;;19.40;12.35;;;;;;;;;;5091547;28;20099;-53
2021/03/04 11:53:42;;;;;;;20.88;10.50;;;;;;;;;;5090969;28;20475;-51
2021/03/04 11:56:07;;;;;;;10.70;9.70;;;;;;;;;;5090753;28;20023;-45
2021/03/04 11:58:32;;;;;;;13.93;10.93;;;;;;;;;;5090800;28;20465;-52
2021/03/04 12:00:58;;;;;;;23.60;12.98;;;;;;;;;;5090389;28;20071;-50
2021/03/04 12:03:23;;;;;;;17.40;11.70;;;;;;;;;;5091067;28;20103;-46
2021/03/04 12:05:48;;;;;;;17.88;11.35;;;;;;;;;;5091019;28;20024;-57
2021/03/04 12:08:14;;;;;;;15.43;10.90;;;;;;;;;;5090527;28;20024;-50
2021/03/04 12:10:39;;;;;;;15.77;11.85;;;;;;;;;;5091255;28;20463;-45
2021/03/04 12:13:05;;;;;;;9.57;8.60;;;;;;;;;;5090889;28;20032;-46
2021/03/04 12:15:31;;;;;;;13.30;8.82;;;;;;;;;;5091269;28;20028;-53
2021/03/04 12:17:57;;;;;;;19.23;11.13;;;;;;;;;;5091059;28;20112;-44
2021/03/04 12:20:22;;;;;;;9.95;9.02;;;;;;;;;;5091209;28;20082;-52
2021/03/04 12:22:47;;;;;;;12.07;8.48;;;;;;;;;;5090203;28;20028;-56
2021/03/04 12:25:13;;;;;;;20.27;8.80;;;;;;;;;;5090636;28;20478;-48
2021/03/04 12:27:38;;;;;;;16.50;9.13;;;;;;;;;;5090443;28;20024;-53
2021/03/04 12:30:04;;;;;;;24.63;9.57;;;;;;;;;;5090474;28;20032;-52
2021/03/04 12:32:29;;;;;;;25.77;10.65;;;;;;;;;;5090415;28;20031;-44
2021/03/04 12:34:55;;;;;;;18.92;10.30;;;;;;;;;;5090287;28;20423;-47
2021/03/04 12:37:20;;;;;;;21.63;8.75;;;;;;;;;;5090245;28;20035;-48
2021/03/04 12:39:45;;;;;;;13.02;8.90;;;;;;;;;;5090269;28;20070;-53
2021/03/04 12:42:11;;;;;;;17.65;11.35;;;;;;;;;;5089906;28;20027;-48
2021/03/04 12:44:36;;;;;;;13.35;10.77;;;;;;;;;;5089838;28;20024;-49
2021/03/04 12:47:01;;;;;;;19.77;7.80;;;;;;;;;;5089807;28;20195;-47
2021/03/04 12:49:27;;;;;;;7.28;6.03;;;;;;;;;;5085191;28;20024;-48
2021/03/04 12:51:52;;;;;;;11.60;9.00;;;;;;;;;;5089497;28;20455;-46
2021/03/04 12:54:17;;;;;;;18.00;8.55;;;;;;;;;;5089423;28;20083;-47
2021/03/04 12:56:43;;;;;;;11.73;8.18;;;;;;;;;;5089312;28;20032;-54
2021/03/04 12:59:09;;;;;;;13.68;9.18;;;;;;;;;;5089905;28;20081;-47
2021/03/04 13:01:34;;;;;;;18.88;8.98;;;;;;;;;;5089524;28;20152;-50
2021/03/04 13:03:59;;;;;;;20.67;9.70;;;;;;;;;;5089396;28;20437;-50
2021/03/04 13:06:25;;;;;;;10.07;8.32;;;;;;;;;;5089672;28;20366;-48
2021/03/04 13:08:51;;;;;;;17.15;9.43;;;;;;;;;;5084115;28;20131;-52
2021/03/04 13:11:16;;;;;;;9.95;8.70;;;;;;;;;;5089642;28;20106;-49
2021/03/04 13:13:43;;;;;;;14.75;9.13;;;;;;;;;;5089593;28;20036;-47
2021/03/04 13:16:08;;;;;;;17.23;7.78;;;;;;;;;;5089578;28;20065;-45
2021/03/04 13:18:33;;;;;;;29.67;9.52;;;;;;;;;;5089530;28;20036;-48
2021/03/04 13:20:59;;;;;;;20.38;7.80;;;;;;;;;;5090063;28;20096;-44
2021/03/04 13:23:24;;;;;;;7.63;6.90;;;;;;;;;;5089422;28;20051;-46
2021/03/04 13:25:49;;;;;;;21.73;12.15;;;;;;;;;;5089300;28;20032;-46
2021/03/04 13:28:15;;;;;;;14.10;9.18;;;;;;;;;;5089563;28;20129;-49
2021/03/04 13:30:40;;;;;;;9.73;7.05;;;;;;;;;;5089895;28;20717;-44
2021/03/04 13:33:05;;;;;;;10.32;9.30;;;;;;;;;;5089089;28;20018;-44
2021/03/04 13:35:31;;;;;;;16.73;10.77;;;;;;;;;;5089194;28;20035;-52
2021/03/04 13:37:56;;;;;;;22.83;12.65;;;;;;;;;;5089116;28;20020;-46
2021/03/04 13:40:21;;;;;;;15.15;9.25;;;;;;;;;;5089177;28;20035;-47
2021/03/04 13:42:47;;;;;;;8.35;7.05;;;;;;;;;;5088542;28;20024;-49
2021/03/04 13:45:12;;;;;;;8.60;6.10;;;;;;;;;;5091459;28;20618;-47
2021/03/04 13:47:38;;;;;;;14.27;6.53;;;;;;;;;;5093821;28;20032;-44
2021/03/04 13:50:04;;;;;;;15.93;8.70;;;;;;;;;;5093271;28;20036;-49
2021/03/04 13:52:29;;;;;;;12.40;7.53;;;;;;;;;;5093094;28;20059;-49
2021/03/04 13:54:54;;;;;;;11.90;7.53;;;;;;;;;;5093101;28;20040;-47
2021/03/04 13:57:20;;;;;;;20.67;10.00;;;;;;;;;;5093278;28;20020;-46
2021/03/04 13:59:45;;;;;;;12.32;9.35;;;;;;;;;;5092484;28;20072;-48
2021/03/04 14:02:11;;;;;;;10.95;9.10;;;;;;;;;;5093143;28;20020;-44
2021/03/04 14:04:36;;;;;;;10.35;7.80;;;;;;;;;;5092996;28;20028;-44
2021/03/04 14:07:01;;;;;;;13.52;7.00;;;;;;;;;;5092397;28;20023;-47
2021/03/04 14:09:27;;;;;;;21.58;8.77;;;;;;;;;;5093330;28;20105;-45
2021/03/04 14:11:52;;;;;;;10.30;9.18;;;;;;;;;;5093177;28;20031;-45
2021/03/04 14:14:17;;;;;;;16.15;10.45;;;;;;;;;;5093077;28;20464;-45
2021/03/04 14:16:43;;;;;;;13.63;9.30;;;;;;;;;;5092710;28;20058;-52